Paris, Michigan
Current Conditions -  °F | °C
As of 3:35 PM on Thursday 23 Oct 2014 (Local Time) from KRQB Reporting Station
Clear Clear  
Wind Chill: 56°   Ceiling: Unl
Heat Index: 56°   Visibility: 10mi
Dew Point: 44°   Wind: 6mph
Humidity: 63%   Direction: 210°SSW
Pressure: 30.13"   Gusts: NA
Location:  43.77°N, 85.5°W
Report Text: KRQB 231935Z AUTO 21005KT 10SM CLR 13/06 A3013 RMK AO2 T01330064
Loading
Personal Weather Stations






























Interactive Weather Map
Tropical Storm Tracking
New forecast layout! Learn more

10-Day Weather Forecast

Advertisements
Track Severe Weather on mobile